createdAt,value
2023-03-15T00:00:10.148Z,3.13
2023-03-15T00:02:37.920Z,1.90
2023-03-15T00:05:07.850Z,1.65
2023-03-15T00:07:35.555Z,3.85
2023-03-15T00:10:06.601Z,4.50
2023-03-15T00:12:34.403Z,2.53
2023-03-15T00:15:02.138Z,2.90
2023-03-15T00:17:32.512Z,4.05
2023-03-15T00:20:00.202Z,5.88
2023-03-15T00:22:29.224Z,2.95
2023-03-15T00:24:56.892Z,2.10
2023-03-15T00:27:24.599Z,1.95
2023-03-15T00:29:52.370Z,1.73
2023-03-15T00:32:20.092Z,1.70
2023-03-15T00:34:49.147Z,2.30
2023-03-15T00:37:19.606Z,2.25
2023-03-15T00:39:48.999Z,2.42
2023-03-15T00:42:16.761Z,2.10
2023-03-15T00:44:47.709Z,2.65
2023-03-15T00:47:16.127Z,2.10
2023-03-15T00:49:44.011Z,2.72
2023-03-15T00:52:12.562Z,2.50
2023-03-15T00:54:43.636Z,2.33
2023-03-15T00:57:12.833Z,2.30
2023-03-15T00:59:40.531Z,2.95
2023-03-15T01:02:08.552Z,2.60
2023-03-15T01:04:38.895Z,2.70
2023-03-15T01:07:08.595Z,2.30
2023-03-15T01:09:36.585Z,2.10
2023-03-15T01:12:04.499Z,2.30
2023-03-15T01:14:35.363Z,2.45
2023-03-15T01:17:03.105Z,2.33
2023-03-15T01:19:30.809Z,1.90
2023-03-15T01:21:58.484Z,1.80
2023-03-15T01:24:26.177Z,1.80
2023-03-15T01:26:53.919Z,1.63
2023-03-15T01:29:22.204Z,1.80
2023-03-15T01:31:51.333Z,2.00
2023-03-15T01:34:19.129Z,1.90
2023-03-15T01:36:46.842Z,1.58
2023-03-15T01:39:15.961Z,1.85
2023-03-15T01:41:43.619Z,1.65
2023-03-15T01:44:15.063Z,1.98
2023-03-15T01:46:42.776Z,1.95
2023-03-15T01:49:15.105Z,1.55
2023-03-15T01:51:47.671Z,1.50
2023-03-15T01:54:20.353Z,1.90
2023-03-15T01:56:53.305Z,2.15
2023-03-15T01:59:24.842Z,1.90
2023-03-15T02:01:54.670Z,2.00
2023-03-15T02:04:28.550Z,2.08
2023-03-15T02:07:00.068Z,1.83
2023-03-15T02:09:33.472Z,2.20
2023-03-15T02:12:01.337Z,2.10
2023-03-15T02:14:30.093Z,2.38
2023-03-15T02:17:00.828Z,2.45
2023-03-15T02:19:41.807Z,2.20
2023-03-15T02:22:23.826Z,3.08
2023-03-15T02:25:01.980Z,2.47
2023-03-15T02:27:36.746Z,2.65
2023-03-15T02:30:06.828Z,2.80
2023-03-15T02:32:35.099Z,3.15
2023-03-15T02:35:02.906Z,3.08
2023-03-15T02:37:30.788Z,3.20
2023-03-15T02:39:58.458Z,3.40
2023-03-15T02:42:26.996Z,3.88
2023-03-15T02:44:58.598Z,3.65
2023-03-15T02:47:29.624Z,3.78
2023-03-15T02:49:57.328Z,4.10
2023-03-15T02:52:26.271Z,3.72
2023-03-15T02:54:54.123Z,4.00
2023-03-15T02:57:22.474Z,4.53
2023-03-15T02:59:52.299Z,4.68
2023-03-15T03:02:23.873Z,3.72
2023-03-15T03:04:55.074Z,3.92
2023-03-15T03:07:22.802Z,3.40
2023-03-15T03:09:53.245Z,4.28
2023-03-15T03:12:23.446Z,4.38
2023-03-15T03:14:51.253Z,4.10
2023-03-15T03:17:21.916Z,4.35
2023-03-15T03:19:51.658Z,4.10
2023-03-15T03:22:19.740Z,3.50
2023-03-15T03:24:48.592Z,3.55
2023-03-15T03:27:17.346Z,3.40
2023-03-15T03:29:45.184Z,4.20
2023-03-15T03:32:13.227Z,3.47
2023-03-15T03:34:40.970Z,3.90
2023-03-15T03:37:10.118Z,3.88
2023-03-15T03:39:38.808Z,4.07
2023-03-15T03:42:06.672Z,4.18
2023-03-15T03:44:34.386Z,4.88
2023-03-15T03:47:02.103Z,5.30
2023-03-15T03:49:29.803Z,5.47
2023-03-15T03:51:57.497Z,5.40
2023-03-15T03:54:26.738Z,5.07
2023-03-15T03:56:54.564Z,5.43
2023-03-15T03:59:22.316Z,4.75
2023-03-15T04:01:51.212Z,5.25
2023-03-15T04:04:18.957Z,5.60
2023-03-15T04:06:47.239Z,5.63
2023-03-15T04:09:17.478Z,6.05
2023-03-15T04:11:46.647Z,6.55
2023-03-15T04:14:15.776Z,6.40
2023-03-15T04:16:43.569Z,5.65
2023-03-15T04:19:12.821Z,5.15
2023-03-15T04:21:47.620Z,5.40
2023-03-15T04:24:15.636Z,5.60
2023-03-15T04:26:43.466Z,5.85
2023-03-15T04:29:14.606Z,5.72
2023-03-15T04:31:44.847Z,5.68
2023-03-15T04:34:13.451Z,6.05
2023-03-15T04:36:42.600Z,5.68
2023-03-15T04:39:10.506Z,5.75
2023-03-15T04:41:39.493Z,5.28
2023-03-15T04:44:07.527Z,5.30
2023-03-15T04:46:36.698Z,5.80
2023-03-15T04:49:05.497Z,5.88
2023-03-15T04:51:34.441Z,5.63
2023-03-15T04:54:02.949Z,6.05
2023-03-15T04:56:31.350Z,5.57
2023-03-15T04:58:59.105Z,5.15
2023-03-15T05:01:30.981Z,5.63
2023-03-15T05:04:00.472Z,5.50
2023-03-15T05:06:29.573Z,5.57
2023-03-15T05:08:57.303Z,5.63
2023-03-15T05:11:25.029Z,4.95
2023-03-15T05:13:54.639Z,4.57
2023-03-15T05:16:22.392Z,4.45
2023-03-15T05:18:53.958Z,4.50
2023-03-15T05:21:23.447Z,4.60
2023-03-15T05:23:51.543Z,4.25
2023-03-15T05:26:19.283Z,4.68
2023-03-15T05:28:47.045Z,4.45
2023-03-15T05:31:17.483Z,4.32
2023-03-15T05:33:47.044Z,5.20
2023-03-15T05:36:18.400Z,5.25
2023-03-15T05:38:47.443Z,4.53
2023-03-15T05:41:17.850Z,4.45
2023-03-15T05:43:45.944Z,4.60
2023-03-15T05:46:13.742Z,5.07
2023-03-15T05:48:41.559Z,5.10
2023-03-15T05:51:09.393Z,4.38
2023-03-15T05:53:37.048Z,4.68
2023-03-15T05:56:06.633Z,5.03
2023-03-15T05:58:34.366Z,5.85
2023-03-15T06:01:04.036Z,5.40
2023-03-15T06:03:32.423Z,5.07
2023-03-15T06:06:03.439Z,5.78
2023-03-15T06:08:31.296Z,5.18
2023-03-15T06:10:58.940Z,5.28
2023-03-15T06:13:28.082Z,5.07
2023-03-15T06:15:55.774Z,5.03
2023-03-15T06:18:23.550Z,5.75
2023-03-15T06:20:51.280Z,5.45
2023-03-15T06:23:24.787Z,5.50
2023-03-15T06:25:52.529Z,5.20
2023-03-15T06:28:20.265Z,5.85
2023-03-15T06:30:49.415Z,5.40
2023-03-15T06:33:18.178Z,6.43
2023-03-15T06:35:46.825Z,6.05
2023-03-15T06:38:15.244Z,6.82
2023-03-15T06:40:42.972Z,6.93
2023-03-15T06:43:18.042Z,7.00
2023-03-15T06:45:46.144Z,6.80
2023-03-15T06:48:15.392Z,5.93
2023-03-15T06:50:47.326Z,6.57
2023-03-15T06:53:17.184Z,6.82
2023-03-15T06:55:44.993Z,7.35
2023-03-15T06:58:13.096Z,7.22
2023-03-15T07:00:41.043Z,8.13
2023-03-15T07:03:09.004Z,7.57
2023-03-15T07:05:38.259Z,7.45
2023-03-15T07:08:06.575Z,8.65
2023-03-15T07:10:35.357Z,8.27
2023-03-15T07:13:04.286Z,8.57
2023-03-15T07:15:31.962Z,8.75
2023-03-15T07:18:00.862Z,8.52
2023-03-15T07:20:30.552Z,9.40
2023-03-15T07:22:59.986Z,8.13
2023-03-15T07:25:27.644Z,9.02
2023-03-15T07:27:55.319Z,9.48
2023-03-15T07:30:23.208Z,9.73
2023-03-15T07:32:51.061Z,9.65
2023-03-15T07:35:19.238Z,9.23
2023-03-15T07:37:47.117Z,9.38
2023-03-15T07:40:16.529Z,9.65
2023-03-15T07:42:44.563Z,9.32
2023-03-15T07:45:13.078Z,10.77
2023-03-15T07:47:40.979Z,10.10
2023-03-15T07:50:09.884Z,9.32
2023-03-15T07:52:37.609Z,10.02
2023-03-15T07:55:08.411Z,10.23
2023-03-15T07:57:37.535Z,10.65
2023-03-15T08:00:06.883Z,9.65
2023-03-15T08:02:34.605Z,11.23
2023-03-15T08:05:02.295Z,10.30
2023-03-15T08:07:30.002Z,10.23
2023-03-15T08:09:57.970Z,11.25
2023-03-15T08:12:25.744Z,11.00
2023-03-15T08:14:54.795Z,9.80
2023-03-15T08:17:22.830Z,10.38
2023-03-15T08:19:50.492Z,9.32
2023-03-15T08:22:18.208Z,9.25
2023-03-15T08:24:46.062Z,9.65
2023-03-15T08:27:13.809Z,8.75
2023-03-15T08:29:41.548Z,8.70
2023-03-15T08:32:11.037Z,8.88
2023-03-15T08:34:38.814Z,8.82
2023-03-15T08:37:06.483Z,8.98
2023-03-15T08:39:36.214Z,9.15
2023-03-15T08:42:04.050Z,9.75
2023-03-15T08:44:32.217Z,8.68
2023-03-15T08:47:00.065Z,8.77
2023-03-15T08:49:29.161Z,8.18
2023-03-15T08:51:58.118Z,6.70
2023-03-15T08:54:28.615Z,6.80
2023-03-15T08:56:56.319Z,7.28
2023-03-15T08:59:31.920Z,6.20
2023-03-15T09:02:01.049Z,6.70
2023-03-15T09:04:30.244Z,6.80
2023-03-15T09:06:58.240Z,7.35
2023-03-15T09:09:26.052Z,6.20
2023-03-15T09:11:53.757Z,6.55
2023-03-15T09:14:21.583Z,6.78
2023-03-15T09:16:49.313Z,7.60
2023-03-15T09:19:17.086Z,6.55
2023-03-15T09:21:47.160Z,6.13
2023-03-15T09:24:15.221Z,6.40
2023-03-15T09:26:43.100Z,6.95
2023-03-15T09:29:10.806Z,7.47
2023-03-15T09:31:38.465Z,6.90
2023-03-15T09:34:06.819Z,6.20
2023-03-15T09:36:35.182Z,6.05
2023-03-15T09:39:04.741Z,4.80
2023-03-15T09:41:43.842Z,5.93
2023-03-15T09:44:42.983Z,5.80
2023-03-15T09:47:22.426Z,6.05
2023-03-15T09:49:58.941Z,5.75
2023-03-15T09:52:34.444Z,5.28
2023-03-15T09:57:40.282Z,4.90
2023-03-15T10:00:14.035Z,4.63
2023-03-15T10:02:48.141Z,5.00
2023-03-15T10:05:20.878Z,4.88
2023-03-15T10:07:48.817Z,4.68
2023-03-15T10:10:23.130Z,5.18
2023-03-15T10:12:56.766Z,4.88
2023-03-15T10:15:37.490Z,4.25
2023-03-15T10:18:26.874Z,4.95
2023-03-15T10:21:01.423Z,4.00
2023-03-15T10:23:38.330Z,4.30
2023-03-15T10:26:09.969Z,3.97
2023-03-15T10:28:38.798Z,4.25
2023-03-15T10:31:22.536Z,4.20
2023-03-15T10:33:58.292Z,3.50
2023-03-15T10:36:26.768Z,3.45
2023-03-15T10:38:54.524Z,3.53
2023-03-15T10:41:40.127Z,3.75
2023-03-15T10:44:13.369Z,3.63
2023-03-15T10:46:41.136Z,3.28
2023-03-15T10:49:13.169Z,2.80
2023-03-15T10:51:43.483Z,2.85
2023-03-15T10:54:17.458Z,2.80
2023-03-15T10:56:49.126Z,3.10
2023-03-15T10:59:18.873Z,3.80
2023-03-15T11:01:49.737Z,2.92
2023-03-15T11:04:20.191Z,3.28
2023-03-15T11:06:50.773Z,3.00
2023-03-15T11:09:20.430Z,2.85
2023-03-15T11:11:59.889Z,3.20
2023-03-15T11:14:34.527Z,3.22
2023-03-15T11:17:03.122Z,2.07
2023-03-15T11:19:33.198Z,2.72
2023-03-15T11:22:03.083Z,2.88
2023-03-15T11:24:32.435Z,2.10
2023-03-15T11:27:03.365Z,2.38
2023-03-15T11:29:32.835Z,2.17
2023-03-15T11:32:02.372Z,1.90
2023-03-15T11:34:43.488Z,1.83
2023-03-15T11:37:16.853Z,2.42
2023-03-15T11:39:53.767Z,2.15
2023-03-15T11:42:31.607Z,2.15
2023-03-15T11:47:41.037Z,1.90
2023-03-15T11:50:12.714Z,2.15
2023-03-15T11:52:41.324Z,2.05
2023-03-15T11:55:18.061Z,1.77
2023-03-15T11:57:49.319Z,1.90
2023-03-15T12:00:37.414Z,1.55
2023-03-15T12:03:40.272Z,2.28
2023-03-15T12:06:36.727Z,2.38
2023-03-15T12:11:58.027Z,1.65
2023-03-15T12:14:32.867Z,1.55
2023-03-15T12:17:39.254Z,2.38
2023-03-15T12:20:18.864Z,1.45
2023-03-15T12:22:52.145Z,1.70
2023-03-15T12:25:35.411Z,1.92
2023-03-15T12:28:11.994Z,1.83
2023-03-15T12:30:43.382Z,1.73
2023-03-15T12:33:16.852Z,1.70
2023-03-15T12:35:45.336Z,1.85
2023-03-15T12:38:17.138Z,2.05
2023-03-15T12:40:54.584Z,1.50
2023-03-15T12:43:40.184Z,1.90
2023-03-15T12:46:47.725Z,1.60
2023-03-15T12:49:30.448Z,1.58
2023-03-15T12:52:01.213Z,1.65
2023-03-15T12:54:35.122Z,1.60
2023-03-15T12:57:05.502Z,1.80
2023-03-15T12:59:40.930Z,1.55
2023-03-15T13:02:42.838Z,1.60
2023-03-15T13:05:23.863Z,1.58
2023-03-15T13:08:04.190Z,1.40
2023-03-15T13:10:39.105Z,1.30
2023-03-15T13:13:17.966Z,1.45
2023-03-15T13:15:55.010Z,1.48
2023-03-15T13:18:25.334Z,1.80
2023-03-15T13:21:06.783Z,1.52
2023-03-15T13:23:35.783Z,1.10
2023-03-15T13:26:18.120Z,1.60
2023-03-15T13:28:52.068Z,1.70
2023-03-15T13:31:24.063Z,1.50
2023-03-15T13:33:57.256Z,1.45
2023-03-15T13:36:28.191Z,1.60
2023-03-15T13:38:57.437Z,1.38
2023-03-15T13:41:27.316Z,1.30
2023-03-15T13:43:57.855Z,1.45
2023-03-15T13:46:30.451Z,1.60
2023-03-15T13:49:02.016Z,1.70
2023-03-15T13:51:32.993Z,1.45
2023-03-15T13:54:04.846Z,1.33
2023-03-15T13:56:46.972Z,1.20
2023-03-15T13:59:17.226Z,1.30
2023-03-15T14:01:45.198Z,1.30
2023-03-15T14:04:18.494Z,1.23
2023-03-15T14:06:47.105Z,1.80
2023-03-15T14:09:20.046Z,1.25
2023-03-15T14:12:02.457Z,1.42
2023-03-15T14:14:31.855Z,1.25
2023-03-15T14:17:05.717Z,1.67
2023-03-15T14:19:36.881Z,1.30
2023-03-15T14:22:13.894Z,1.50
2023-03-15T14:24:44.197Z,1.92
2023-03-15T14:27:17.179Z,2.35
2023-03-15T14:29:48.662Z,1.40
2023-03-15T14:32:26.531Z,1.50
2023-03-15T14:35:01.913Z,1.70
2023-03-15T14:37:33.862Z,1.40
2023-03-15T14:40:15.743Z,1.50
2023-03-15T14:42:43.729Z,1.42
2023-03-15T14:45:11.774Z,1.50
2023-03-15T14:47:55.591Z,1.60
2023-03-15T14:50:28.700Z,1.58
2023-03-15T14:52:58.814Z,2.00
2023-03-15T14:55:33.401Z,1.63
2023-03-15T14:58:01.593Z,1.60
2023-03-15T15:00:30.192Z,1.50
2023-03-15T15:02:58.457Z,1.70
2023-03-15T15:05:29.295Z,2.05
2023-03-15T15:08:03.170Z,8.45
2023-03-15T15:10:33.229Z,18.55
2023-03-15T15:13:06.340Z,3.60
2023-03-15T15:15:51.764Z,2.22
2023-03-15T15:18:21.787Z,2.33
2023-03-15T15:20:54.276Z,1.80
2023-03-15T15:23:24.120Z,1.88
2023-03-15T15:25:57.415Z,1.80
2023-03-15T15:28:34.533Z,1.50
2023-03-15T15:31:03.779Z,2.30
2023-03-15T15:33:31.636Z,13.90
2023-03-15T15:36:01.093Z,1.90
2023-03-15T15:38:37.893Z,1.95
2023-03-15T15:41:06.106Z,1.58
2023-03-15T15:43:33.952Z,2.40
2023-03-15T15:46:02.947Z,1.63
2023-03-15T15:48:31.167Z,1.50
2023-03-15T15:51:00.370Z,1.70
2023-03-15T15:53:31.879Z,1.80
2023-03-15T15:55:59.570Z,3.40
2023-03-15T15:58:27.280Z,2.70
2023-03-15T16:00:54.996Z,2.22
2023-03-15T16:03:22.943Z,1.90
2023-03-15T16:05:50.832Z,2.47
2023-03-15T16:08:22.591Z,2.47
2023-03-15T16:10:50.534Z,1.90
2023-03-15T16:13:18.591Z,1.77
2023-03-15T16:15:46.577Z,2.63
2023-03-15T16:18:15.588Z,8.57
2023-03-15T16:20:43.834Z,1.75
2023-03-15T16:23:20.372Z,1.67
2023-03-15T16:25:51.677Z,2.20
2023-03-15T16:28:19.678Z,1.75
2023-03-15T16:30:47.737Z,1.65
2023-03-15T16:33:17.284Z,2.10
2023-03-15T16:35:45.624Z,2.40
2023-03-15T16:38:17.011Z,2.40
2023-03-15T16:40:46.651Z,2.40
2023-03-15T16:43:15.732Z,3.08
2023-03-15T16:45:43.478Z,3.10
2023-03-15T16:48:11.978Z,2.60
2023-03-15T16:50:40.877Z,3.03
2023-03-15T16:53:11.100Z,2.58
2023-03-15T16:55:41.597Z,2.50
2023-03-15T16:58:18.302Z,2.88
2023-03-15T17:00:48.408Z,2.25
2023-03-15T17:03:18.026Z,2.20
2023-03-15T17:05:47.591Z,2.30
2023-03-15T17:08:18.675Z,2.42
2023-03-15T17:10:47.288Z,2.95
2023-03-15T17:13:21.595Z,3.10
2023-03-15T17:15:49.325Z,3.70
2023-03-15T17:18:19.322Z,3.35
2023-03-15T17:20:50.170Z,2.58
2023-03-15T17:23:20.920Z,3.67
2023-03-15T17:25:49.413Z,3.72
2023-03-15T17:28:18.540Z,2.70
2023-03-15T17:30:51.703Z,2.97
2023-03-15T17:33:25.856Z,3.15
2023-03-15T17:35:57.161Z,2.30
2023-03-15T17:38:29.260Z,2.70
2023-03-15T17:40:57.101Z,2.40
2023-03-15T17:43:26.663Z,2.60
2023-03-15T17:45:54.350Z,2.25
2023-03-15T17:48:22.148Z,2.85
2023-03-15T17:50:52.551Z,2.90
2023-03-15T17:53:21.474Z,3.05
2023-03-15T17:55:49.740Z,2.42
2023-03-15T17:58:19.925Z,2.88
2023-03-15T18:00:50.846Z,3.03
2023-03-15T18:03:19.295Z,3.60
2023-03-15T18:05:48.690Z,4.43
2023-03-15T18:08:18.983Z,4.60
2023-03-15T18:10:48.806Z,3.90
2023-03-15T18:13:18.798Z,3.78
2023-03-15T18:15:46.873Z,3.95
2023-03-15T18:18:16.445Z,3.75
2023-03-15T18:20:45.099Z,4.45
2023-03-15T18:23:15.292Z,4.45
2023-03-15T18:25:43.716Z,3.88
2023-03-15T18:28:12.080Z,3.97
2023-03-15T18:30:39.780Z,3.63
2023-03-15T18:33:07.635Z,3.33
2023-03-15T18:35:37.457Z,3.55
2023-03-15T18:38:05.817Z,3.45
2023-03-15T18:40:35.719Z,3.28
2023-03-15T18:43:05.363Z,3.17
2023-03-15T18:45:35.436Z,3.60
2023-03-15T18:48:04.446Z,4.55
2023-03-15T18:50:33.409Z,3.65
2023-03-15T18:53:05.094Z,4.25
2023-03-15T18:55:35.920Z,8.70
2023-03-15T18:58:04.059Z,4.22
2023-03-15T19:00:36.053Z,16.38
2023-03-15T19:03:05.557Z,5.20
2023-03-15T19:05:36.593Z,3.40
2023-03-15T19:08:05.981Z,3.58
2023-03-15T19:10:33.994Z,3.63
2023-03-15T19:13:04.026Z,4.07
2023-03-15T19:15:32.244Z,3.65
2023-03-15T19:18:00.947Z,4.53
2023-03-15T19:20:28.742Z,4.82
2023-03-15T19:22:56.469Z,4.70
2023-03-15T19:25:25.640Z,4.05
2023-03-15T19:27:53.368Z,3.90
2023-03-15T19:30:24.018Z,3.80
2023-03-15T19:32:52.036Z,3.95
2023-03-15T19:35:21.091Z,3.50
2023-03-15T19:37:50.447Z,3.97
2023-03-15T19:40:19.150Z,3.80
2023-03-15T19:42:49.500Z,4.45
2023-03-15T19:45:19.751Z,4.65
2023-03-15T19:47:47.519Z,5.78
2023-03-15T19:50:16.295Z,5.25
2023-03-15T19:52:47.780Z,5.97
2023-03-15T19:55:16.969Z,5.93
2023-03-15T19:57:45.046Z,8.80
2023-03-15T20:00:16.853Z,5.13
2023-03-15T20:02:45.070Z,12.25
2023-03-15T20:05:15.079Z,12.85
2023-03-15T20:07:43.546Z,5.60
2023-03-15T20:10:12.410Z,4.43
2023-03-15T20:12:42.356Z,6.78
2023-03-15T20:15:14.799Z,10.73
2023-03-15T20:17:44.672Z,5.88
2023-03-15T20:20:16.312Z,9.75
2023-03-15T20:22:46.225Z,5.75
2023-03-15T20:25:19.220Z,6.82
2023-03-15T20:27:47.457Z,5.70
2023-03-15T20:30:17.090Z,6.90
2023-03-15T20:32:46.177Z,5.47
2023-03-15T20:35:14.184Z,5.03
2023-03-15T20:37:42.839Z,5.70
2023-03-15T20:40:14.406Z,5.93
2023-03-15T20:42:42.926Z,7.65
2023-03-15T20:45:12.355Z,6.18
2023-03-15T20:47:41.122Z,6.53
2023-03-15T20:50:13.122Z,5.93
2023-03-15T20:52:42.620Z,5.55
2023-03-15T20:55:11.500Z,4.72
2023-03-15T20:57:41.685Z,4.90
2023-03-15T21:00:13.123Z,4.40
2023-03-15T21:02:50.050Z,5.22
2023-03-15T21:05:19.631Z,4.38
2023-03-15T21:07:47.328Z,5.57
2023-03-15T21:10:15.482Z,4.88
2023-03-15T21:12:43.908Z,5.50
2023-03-15T21:15:15.372Z,5.05
2023-03-15T21:17:43.038Z,5.50
2023-03-15T21:20:13.722Z,4.55
2023-03-15T21:22:44.539Z,5.03
2023-03-15T21:25:13.269Z,5.70
2023-03-15T21:27:41.071Z,5.45
2023-03-15T21:30:10.805Z,5.75
2023-03-15T21:32:41.928Z,5.85
2023-03-15T21:35:10.808Z,5.57
2023-03-15T21:37:38.623Z,5.70
2023-03-15T21:40:09.021Z,5.78
2023-03-15T21:42:37.075Z,5.38
2023-03-15T21:45:07.333Z,7.32
2023-03-15T21:47:35.092Z,6.43
2023-03-15T21:50:02.971Z,7.35
2023-03-15T21:52:31.221Z,7.10
2023-03-15T21:54:58.970Z,6.78
2023-03-15T21:57:28.208Z,7.13
2023-03-15T21:59:56.013Z,7.53
2023-03-15T22:02:23.756Z,7.28
2023-03-15T22:04:51.783Z,6.85
2023-03-15T22:07:19.526Z,6.97
2023-03-15T22:09:47.228Z,6.07
2023-03-15T22:12:15.646Z,5.30
2023-03-15T22:14:47.355Z,5.97
2023-03-15T22:17:17.382Z,5.05
2023-03-15T22:19:45.578Z,6.30
2023-03-15T22:22:13.279Z,6.47
2023-03-15T22:24:41.780Z,6.80
2023-03-15T22:27:09.659Z,7.28
2023-03-15T22:29:39.015Z,7.90
2023-03-15T22:32:08.909Z,8.32
2023-03-15T22:34:39.370Z,9.38
2023-03-15T22:37:07.083Z,9.48
2023-03-15T22:39:37.927Z,8.70
2023-03-15T22:42:05.760Z,7.90
2023-03-15T22:44:33.430Z,7.75
2023-03-15T22:47:01.124Z,7.80
2023-03-15T22:49:30.192Z,7.13
2023-03-15T22:52:06.328Z,8.73
2023-03-15T23:00:13.629Z,8.52
2023-03-15T23:02:42.139Z,8.45
2023-03-15T23:05:11.736Z,8.73
2023-03-15T23:07:40.033Z,8.70
2023-03-15T23:10:09.254Z,8.52
2023-03-15T23:12:37.006Z,9.38
2023-03-15T23:15:05.489Z,8.70
2023-03-15T23:17:37.029Z,8.70
2023-03-15T23:20:09.189Z,8.20
2023-03-15T23:22:36.857Z,7.38
2023-03-15T23:25:05.002Z,8.73
2023-03-15T23:27:32.660Z,8.35
2023-03-15T23:30:03.396Z,8.38
2023-03-15T23:32:31.617Z,8.40
2023-03-15T23:35:03.986Z,8.48
2023-03-15T23:37:32.870Z,8.13
2023-03-15T23:40:11.494Z,9.05
2023-03-15T23:42:39.333Z,8.50
2023-03-15T23:45:08.217Z,8.07
2023-03-15T23:47:35.971Z,8.75
2023-03-15T23:50:06.222Z,8.45
2023-03-15T23:52:33.956Z,8.20
2023-03-15T23:55:01.956Z,7.78
2023-03-15T23:57:29.741Z,9.15
2023-03-15T23:59:57.430Z,8.35
